Time;durP1;ratioP1;P1;durP2;ratioP2;P2;SDS_P1;SDS_P2;PMS_P1;PMS_P2;Temp;Humidity;BMP_temperature;BMP_pressure;BME280_temperature;BME280_humidity;BME280_pressure;Samples;Min_cycle;Max_cycle;Signal;HPM_P1;HPM_P2
2023/04/04 00:00:06;;;;;;;3.47;2.45;;;;;;;0.86;54.53;99279.94;5015072;28;20030;-76
2023/04/04 00:02:32;;;;;;;4.25;2.40;;;;;;;0.90;53.35;99281.28;5014503;28;20049;-77
2023/04/04 00:04:58;;;;;;;4.15;2.53;;;;;;;0.88;53.83;99264.69;5015767;28;20589;-77
2023/04/04 00:07:23;;;;;;;3.53;2.35;;;;;;;0.92;54.19;99279.28;5031745;28;20056;-77
2023/04/04 00:09:48;;;;;;;4.22;3.08;;;;;;;0.62;56.07;99274.47;5030451;28;20419;-77
2023/04/04 00:12:14;;;;;;;2.63;2.28;;;;;;;0.74;55.60;99269.72;5028823;28;20029;-78
2023/04/04 00:14:39;;;;;;;3.67;2.20;;;;;;;0.69;54.66;99262.25;5023942;28;20376;-78
2023/04/04 00:17:05;;;;;;;4.30;2.47;;;;;;;0.62;56.08;99262.03;5027167;28;20061;-78
2023/04/04 00:19:30;;;;;;;4.03;2.70;;;;;;;0.62;56.46;99269.16;5020775;28;20025;-75
2023/04/04 00:21:56;;;;;;;2.92;2.50;;;;;;;0.53;56.19;99251.53;5025503;28;20076;-78
2023/04/04 00:24:21;;;;;;;3.22;2.40;;;;;;;0.68;56.57;99255.28;5033347;28;20399;-79
2023/04/04 00:26:47;;;;;;;3.92;2.58;;;;;;;0.69;56.48;99256.94;5010597;28;20044;-78
2023/04/04 00:29:12;;;;;;;3.63;2.53;;;;;;;0.49;56.74;99258.16;5029690;28;20029;-78
2023/04/04 00:31:38;;;;;;;2.97;2.33;;;;;;;0.55;56.70;99265.47;5009796;28;20055;-78
2023/04/04 00:34:03;;;;;;;3.15;2.45;;;;;;;0.61;57.14;99256.88;5007539;28;20105;-78
2023/04/04 00:36:28;;;;;;;4.30;2.40;;;;;;;0.58;57.35;99259.88;5026542;28;20483;-78
2023/04/04 00:38:54;;;;;;;3.15;2.47;;;;;;;0.33;58.91;99247.41;5029735;28;20068;-79
2023/04/04 00:41:20;;;;;;;4.00;2.38;;;;;;;0.36;59.16;99255.88;5025976;28;20049;-78
2023/04/04 00:43:45;;;;;;;3.30;2.63;;;;;;;0.30;60.68;99253.03;5005619;28;20057;-77
2023/04/04 00:46:13;;;;;;;4.15;2.60;;;;;;;0.32;60.95;99256.34;5026312;28;20479;-77
2023/04/04 00:48:40;;;;;;;3.28;2.40;;;;;;;-0.03;61.58;99249.28;5030083;28;20084;-78
2023/04/04 00:51:05;;;;;;;5.20;2.50;;;;;;;0.12;61.39;99246.91;5026421;28;20083;-77
2023/04/04 00:53:31;;;;;;;3.58;2.53;;;;;;;-0.11;62.56;99252.66;5022034;28;20026;-77
2023/04/04 00:55:56;;;;;;;3.85;2.70;;;;;;;-0.24;61.68;99254.88;5005328;28;20130;-79
2023/04/04 00:58:23;;;;;;;3.22;2.60;;;;;;;-0.08;62.24;99257.66;5012879;28;20472;-78
2023/04/04 01:00:49;;;;;;;5.38;3.00;;;;;;;-0.09;63.35;99253.34;5015847;28;20495;-78
2023/04/04 01:03:14;;;;;;;3.10;2.50;;;;;;;-0.29;62.20;99249.19;5029152;28;20024;-78
2023/04/04 01:05:40;;;;;;;4.47;2.72;;;;;;;-0.20;62.16;99265.97;5026117;28;20041;-77
2023/04/04 01:08:06;;;;;;;4.22;2.50;;;;;;;-0.13;59.75;99259.94;5022107;28;20025;-78
2023/04/04 01:10:32;;;;;;;5.78;2.60;;;;;;;-0.10;62.24;99254.34;5005537;28;20463;-77
2023/04/04 01:12:58;;;;;;;4.07;2.33;;;;;;;-0.26;62.07;99240.13;5022940;28;20034;-76
2023/04/04 01:15:23;;;;;;;5.93;2.78;;;;;;;-0.13;61.80;99249.34;5016047;28;20139;-79
2023/04/04 01:17:50;;;;;;;5.88;2.80;;;;;;;-0.36;62.27;99242.81;5022236;28;20032;-78
2023/04/04 01:20:20;;;;;;;3.60;2.97;;;;;;;-0.23;62.45;99255.66;5035349;28;20080;-76
2023/04/04 01:22:50;;;;;;;5.07;2.92;;;;;;;-0.13;62.79;99251.16;5005502;28;20026;-77
2023/04/04 01:25:17;;;;;;;4.40;3.13;;;;;;;-0.17;62.29;99241.84;5040157;28;20030;-78
2023/04/04 01:27:46;;;;;;;3.60;3.10;;;;;;;-0.37;63.09;99214.69;5028858;28;20025;-77
2023/04/04 01:30:15;;;;;;;3.95;2.78;;;;;;;-0.05;61.82;99246.75;5028291;28;20442;-78
2023/04/04 01:33:00;;;;;;;4.88;3.17;;;;;;;-0.16;63.19;99249.63;5021592;28;20017;-78
2023/04/04 01:35:37;;;;;;;3.63;3.00;;;;;;;-0.23;64.34;99243.28;5005660;28;20044;-79
2023/04/04 01:38:07;;;;;;;3.53;3.22;;;;;;;-0.31;64.59;99251.16;5025364;28;20044;-77
2023/04/04 01:40:34;;;;;;;3.20;2.90;;;;;;;-0.36;65.59;99242.00;5029183;28;20045;-76
2023/04/04 01:43:00;;;;;;;4.03;2.90;;;;;;;-0.32;65.31;99228.31;5015974;28;20017;-78
2023/04/04 01:45:28;;;;;;;3.35;2.78;;;;;;;-0.32;64.74;99238.88;5015531;28;20041;-78
2023/04/04 01:47:58;;;;;;;3.22;2.90;;;;;;;-0.11;64.39;99230.66;5011369;28;20022;-77
2023/04/04 01:50:24;;;;;;;5.40;3.42;;;;;;;-0.24;64.09;99230.19;5022337;28;20034;-78
2023/04/04 01:52:50;;;;;;;4.50;3.22;;;;;;;-0.20;64.10;99221.81;5021748;28;20306;-78
2023/04/04 01:55:16;;;;;;;3.60;2.83;;;;;;;-0.42;63.87;99229.38;5028133;28;20040;-79
2023/04/04 01:57:41;;;;;;;4.85;2.92;;;;;;;-0.44;64.41;99218.91;5014823;28;20132;-78
2023/04/04 02:00:07;;;;;;;3.53;2.85;;;;;;;-0.41;63.87;99223.06;4990857;28;20044;-78
2023/04/04 02:02:41;;;;;;;4.25;3.10;;;;;;;-0.32;64.69;99238.88;5018992;28;20163;-79
2023/04/04 02:05:07;;;;;;;5.03;3.13;;;;;;;-0.40;65.30;99230.03;5015395;28;20038;-78
2023/04/04 02:07:33;;;;;;;4.32;2.85;;;;;;;-0.38;64.59;99234.22;5015530;28;20032;-78
2023/04/04 02:10:00;;;;;;;3.72;2.80;;;;;;;-0.41;64.33;99229.22;5031370;28;20034;-77
2023/04/04 02:12:25;;;;;;;5.25;2.75;;;;;;;-0.30;63.89;99228.97;5032244;28;20026;-78
2023/04/04 02:14:51;;;;;;;4.20;2.65;;;;;;;-0.50;65.07;99229.28;5034450;28;20398;-79
2023/04/04 02:17:17;;;;;;;3.42;2.78;;;;;;;-0.43;64.95;99225.88;5039025;28;20396;-78
2023/04/04 02:19:42;;;;;;;3.33;2.97;;;;;;;-0.40;63.90;99222.94;5027731;28;20033;-78
2023/04/04 02:22:08;;;;;;;4.38;2.78;;;;;;;-0.58;64.24;99216.78;5026910;28;20100;-77
2023/04/04 02:24:33;;;;;;;4.35;2.60;;;;;;;-0.36;63.56;99221.66;5020887;28;20453;-79
2023/04/04 02:26:58;;;;;;;4.68;3.05;;;;;;;-0.47;63.15;99219.25;5021863;28;20061;-77
2023/04/04 02:29:25;;;;;;;3.45;2.67;;;;;;;-0.44;61.81;99224.22;5028546;28;20121;-77
2023/04/04 02:31:50;;;;;;;3.88;2.70;;;;;;;-0.43;62.21;99220.59;5015001;28;20056;-77
2023/04/04 02:34:16;;;;;;;7.07;2.70;;;;;;;-0.51;63.23;99207.28;5011300;28;20030;-76
2023/04/04 02:36:42;;;;;;;3.08;2.67;;;;;;;-0.59;63.03;99209.84;5009995;28;20032;-76
2023/04/04 02:39:08;;;;;;;4.28;2.65;;;;;;;-0.62;63.70;99209.28;5019162;28;20037;-76
2023/04/04 02:41:36;;;;;;;3.42;2.90;;;;;;;-0.75;63.93;99209.66;5036831;28;20084;-77
2023/04/04 02:44:02;;;;;;;4.55;2.72;;;;;;;-0.88;64.47;99198.59;5013806;28;20041;-75
2023/04/04 02:46:27;;;;;;;3.38;2.45;;;;;;;-0.89;64.20;99208.31;5009293;28;20029;-76
2023/04/04 02:48:57;;;;;;;4.18;2.60;;;;;;;-0.95;64.83;99193.06;5005396;28;20029;-78
2023/04/04 02:51:24;;;;;;;3.85;2.78;;;;;;;-0.92;65.25;99197.22;5033833;28;20033;-78
2023/04/04 02:53:49;;;;;;;6.90;2.70;;;;;;;-0.87;64.73;99194.97;5035929;28;20021;-77
2023/04/04 02:56:20;;;;;;;4.55;2.63;;;;;;;-0.92;64.00;99192.78;5033285;28;20095;-77
2023/04/04 02:58:47;;;;;;;3.97;2.50;;;;;;;-0.90;63.83;99200.56;5020141;28;20029;-77
2023/04/04 03:01:12;;;;;;;4.30;2.85;;;;;;;-1.04;64.06;99193.13;5019579;28;20029;-78
2023/04/04 03:03:38;;;;;;;3.25;2.60;;;;;;;-0.88;63.76;99204.72;5041753;28;20120;-78
2023/04/04 03:06:03;;;;;;;2.80;2.47;;;;;;;-0.92;62.71;99191.94;5012917;28;20049;-78
2023/04/04 03:08:29;;;;;;;4.50;3.20;;;;;;;-0.94;62.82;99184.16;5019520;28;20037;-78
2023/04/04 03:10:57;;;;;;;3.20;2.67;;;;;;;-0.84;63.06;99194.69;5018071;28;20462;-77
2023/04/04 03:13:22;;;;;;;4.07;2.88;;;;;;;-0.87;63.47;99198.47;5003610;28;20041;-78
2023/04/04 03:15:48;;;;;;;3.38;2.67;;;;;;;-1.07;64.80;99188.13;5019279;28;20057;-76
2023/04/04 03:18:15;;;;;;;3.55;2.70;;;;;;;-1.17;65.23;99193.47;5017660;28;20057;-75
2023/04/04 03:20:40;;;;;;;4.13;2.65;;;;;;;-1.13;65.89;99200.13;5034082;28;20549;-75
2023/04/04 03:23:06;;;;;;;3.95;3.13;;;;;;;-1.13;65.89;99199.28;5023848;28;20030;-75
2023/04/04 03:25:31;;;;;;;4.88;3.10;;;;;;;-1.04;65.41;99203.69;5023656;28;20109;-74
2023/04/04 03:27:57;;;;;;;3.63;3.10;;;;;;;-1.15;65.52;99195.97;5017350;28;20029;-75
2023/04/04 03:30:25;;;;;;;4.60;2.90;;;;;;;-1.13;65.52;99188.72;5030434;28;20116;-75
2023/04/04 03:32:50;;;;;;;4.53;3.58;;;;;;;-1.12;66.06;99190.38;5040886;28;20120;-76
2023/04/04 03:35:15;;;;;;;4.38;3.42;;;;;;;-1.40;66.96;99192.97;5040285;28;20119;-74
2023/04/04 03:37:41;;;;;;;3.85;3.00;;;;;;;-1.47;68.07;99194.53;5024398;28;20068;-75
2023/04/04 03:40:08;;;;;;;3.78;3.33;;;;;;;-1.51;68.73;99190.53;5023665;28;20506;-75
2023/04/04 03:42:33;;;;;;;3.88;2.80;;;;;;;-1.74;69.49;99189.22;5028760;22;20038;-73
2023/04/04 03:45:01;;;;;;;6.13;3.17;;;;;;;-1.46;68.15;99183.00;5037929;28;20108;-74
2023/04/04 03:47:30;;;;;;;5.93;3.03;;;;;;;-1.49;67.45;99183.28;4987221;28;20029;-73
2023/04/04 03:49:57;;;;;;;3.78;2.88;;;;;;;-1.55;67.95;99183.88;5014462;28;20036;-72
2023/04/04 03:52:23;;;;;;;4.28;2.72;;;;;;;-1.44;65.88;99191.63;5002553;28;20034;-72
2023/04/04 03:54:50;;;;;;;5.13;3.20;;;;;;;-1.30;65.50;99192.13;4987703;28;20021;-73
2023/04/04 03:57:16;;;;;;;4.25;2.53;;;;;;;-1.79;69.35;99190.59;4981424;28;20088;-72
2023/04/04 03:59:41;;;;;;;4.53;3.10;;;;;;;-1.81;69.34;99188.09;4980600;28;20081;-72
2023/04/04 04:02:07;;;;;;;4.13;2.60;;;;;;;-1.50;66.82;99181.66;4982019;28;20119;-73
2023/04/04 04:04:33;;;;;;;3.83;2.90;;;;;;;-1.54;67.55;99188.16;4993815;28;20034;-72
2023/04/04 04:06:58;;;;;;;4.78;3.15;;;;;;;-1.57;67.14;99172.63;4986389;28;20030;-72
2023/04/04 04:09:24;;;;;;;3.88;2.78;;;;;;;-1.60;68.21;99182.63;4987671;28;20021;-72
2023/04/04 04:11:49;;;;;;;4.22;2.80;;;;;;;-1.68;68.34;99178.06;4974646;28;20040;-71
2023/04/04 04:14:15;;;;;;;6.50;3.30;;;;;;;-1.66;67.19;99181.41;4987272;28;20091;-72
2023/04/04 04:16:41;;;;;;;4.50;2.97;;;;;;;-1.71;66.85;99183.66;4982058;28;20144;-71
2023/04/04 04:19:08;;;;;;;3.92;2.65;;;;;;;-1.51;67.52;99174.69;4981087;28;20024;-72
2023/04/04 04:21:38;;;;;;;3.58;2.92;;;;;;;-1.59;67.29;99177.19;4985793;28;20031;-72
2023/04/04 04:24:04;;;;;;;4.05;3.00;;;;;;;-1.55;67.20;99173.31;5004686;28;20517;-71
2023/04/04 04:26:30;;;;;;;4.70;3.38;;;;;;;-1.63;66.98;99175.84;4982409;28;20038;-71
2023/04/04 04:28:55;;;;;;;4.75;3.55;;;;;;;-1.69;67.40;99168.50;4980708;28;20403;-72
2023/04/04 04:31:27;;;;;;;3.67;3.17;;;;;;;-1.69;67.50;99171.13;5000117;28;20014;-72
2023/04/04 04:33:54;;;;;;;7.00;3.30;;;;;;;-1.73;66.80;99169.75;5013346;28;20057;-72
2023/04/04 04:36:24;;;;;;;4.10;2.85;;;;;;;-1.77;67.47;99172.81;4988485;28;20354;-73
2023/04/04 04:39:09;;;;;;;4.95;3.00;;;;;;;-1.71;67.49;99164.34;5013370;28;20041;-73
2023/04/04 04:41:39;;;;;;;6.18;3.50;;;;;;;-1.65;67.04;99166.38;4984842;28;20038;-74
2023/04/04 04:44:05;;;;;;;6.60;3.40;;;;;;;-1.75;67.80;99176.97;4990274;28;20510;-74
2023/04/04 04:46:31;;;;;;;4.90;3.42;;;;;;;-1.82;68.32;99173.22;5006164;28;20034;-75
2023/04/04 04:49:01;;;;;;;6.18;3.22;;;;;;;-1.85;68.77;99172.69;4983815;28;20038;-74
2023/04/04 04:51:29;;;;;;;4.18;3.78;;;;;;;-1.96;69.27;99157.84;4984557;28;20026;-74
2023/04/04 04:53:56;;;;;;;6.43;3.60;;;;;;;-1.93;69.17;99162.84;4997103;28;20022;-74
2023/04/04 04:56:23;;;;;;;5.35;3.72;;;;;;;-1.91;68.79;99166.16;4967841;28;20037;-73
2023/04/04 04:58:51;;;;;;;6.72;3.80;;;;;;;-1.86;69.75;99174.50;4984444;28;20030;-73
2023/04/04 05:01:21;;;;;;;3.97;3.55;;;;;;;-1.97;70.01;99166.75;4994027;28;20040;-72
2023/04/04 05:03:47;;;;;;;4.63;3.88;;;;;;;-1.92;69.04;99175.09;4996591;28;20496;-73
2023/04/04 05:06:17;;;;;;;4.20;3.63;;;;;;;-1.85;69.09;99162.97;4994961;28;20033;-72
2023/04/04 05:08:43;;;;;;;5.93;3.65;;;;;;;-1.71;67.95;99162.53;4996628;28;20592;-72
2023/04/04 05:11:27;;;;;;;5.10;4.00;;;;;;;-1.70;67.57;99169.47;4999571;28;20032;-72
2023/04/04 05:13:53;;;;;;;4.70;4.20;;;;;;;-1.63;66.95;99170.56;4996308;28;20033;-73
2023/04/04 05:16:20;;;;;;;4.13;3.38;;;;;;;-1.68;67.55;99162.22;4980370;28;20088;-72
2023/04/04 05:18:48;;;;;;;6.68;3.97;;;;;;;-1.70;67.95;99169.47;4996978;28;20041;-72
2023/04/04 05:21:13;;;;;;;5.28;3.60;;;;;;;-1.81;69.58;99172.28;4996283;28;20030;-72
2023/04/04 05:23:39;;;;;;;6.53;3.65;;;;;;;-1.83;68.49;99174.22;5012528;28;20037;-73
2023/04/04 05:26:06;;;;;;;4.85;3.70;;;;;;;-1.75;68.81;99166.41;4996525;28;20030;-73
2023/04/04 05:28:34;;;;;;;3.80;3.10;;;;;;;-1.54;66.42;99180.25;4977263;28;20088;-72
2023/04/04 05:31:02;;;;;;;3.78;2.92;;;;;;;-1.55;66.00;99177.75;4989932;28;20133;-72
2023/04/04 05:33:30;;;;;;;5.90;3.22;;;;;;;-1.41;65.75;99180.78;4995908;28;20523;-72
2023/04/04 05:36:05;;;;;;;;;;;;;;;-1.29;65.41;99183.22;5013009;28;20036;-73
2023/04/04 05:38:35;;;;;;;4.50;3.00;;;;;;;-1.33;67.35;99184.50;4995977;28;20399;-74
2023/04/04 05:41:00;;;;;;;5.25;3.08;;;;;;;-1.44;68.08;99190.78;4980115;28;20061;-73
2023/04/04 05:43:26;;;;;;;3.92;3.20;;;;;;;-1.43;67.80;99185.38;4982700;28;20077;-73
2023/04/04 05:46:03;;;;;;;3.72;3.28;;;;;;;-1.22;68.14;99189.59;4981611;28;20437;-73
2023/04/04 05:48:35;;;;;;;3.55;2.90;;;;;;;-1.35;67.80;99191.75;4983573;28;20034;-74
2023/04/04 05:51:00;;;;;;;4.22;2.90;;;;;;;-1.22;66.51;99187.78;5002226;28;20450;-75
2023/04/04 05:53:37;;;;;;;4.10;2.90;;;;;;;-1.04;65.81;99198.41;4980898;28;20044;-74
2023/04/04 05:56:03;;;;;;;4.68;3.00;;;;;;;-0.83;64.40;99201.63;4973442;28;20026;-74
2023/04/04 05:58:31;;;;;;;4.63;3.13;;;;;;;-0.64;65.29;99201.53;4975081;28;20018;-74
2023/04/04 06:00:58;;;;;;;4.25;3.28;;;;;;;-0.54;63.82;99204.94;4995992;28;20040;-73
2023/04/04 06:03:24;;;;;;;4.50;3.50;;;;;;;-0.51;63.22;99201.97;4999930;28;20018;-74
2023/04/04 06:05:51;;;;;;;5.32;3.70;;;;;;;-0.41;62.28;99197.47;4984203;28;20065;-73
2023/04/04 06:08:17;;;;;;;5.00;3.42;;;;;;;-0.42;62.26;99201.06;4981625;28;20399;-75
2023/04/04 06:10:43;;;;;;;4.93;3.70;;;;;;;-0.40;61.47;99193.84;4984071;28;20515;-74
2023/04/04 06:13:08;;;;;;;5.10;3.35;;;;;;;-0.30;61.82;99204.31;4988671;28;20041;-74
2023/04/04 06:15:35;;;;;;;6.65;4.20;;;;;;;-0.27;62.62;99204.88;4987454;28;20058;-73
2023/04/04 06:18:00;;;;;;;6.18;3.97;;;;;;;-0.30;64.21;99202.53;4982258;28;20061;-73
2023/04/04 06:20:27;;;;;;;7.90;4.50;;;;;;;-0.30;63.82;99210.47;4995469;28;20415;-72
2023/04/04 06:22:53;;;;;;;6.88;4.05;;;;;;;-0.07;63.25;99206.38;4994942;28;20088;-72
2023/04/04 06:25:19;;;;;;;4.88;3.92;;;;;;;-0.12;63.01;99206.00;4974326;28;20038;-72
2023/04/04 06:27:45;;;;;;;9.43;3.95;;;;;;;0.02;63.07;99191.41;4977106;28;20061;-73
2023/04/04 06:30:13;;;;;;;6.55;4.15;;;;;;;0.28;62.78;99205.47;4978731;28;20495;-72
2023/04/04 06:32:40;;;;;;;5.63;3.65;;;;;;;0.03;62.64;99194.84;4991060;28;20369;-72
2023/04/04 06:35:07;;;;;;;4.95;3.92;;;;;;;0.12;63.28;99199.25;4991472;28;20030;-72
2023/04/04 06:37:40;;;;;;;4.82;3.58;;;;;;;0.13;62.77;99196.44;5006464;28;20026;-73
2023/04/04 06:40:15;;;;;;;5.95;3.83;;;;;;;0.24;63.03;99198.00;4996966;28;20074;-72
2023/04/04 06:42:49;;;;;;;4.57;4.10;;;;;;;0.35;63.43;99192.47;4994505;28;20057;-73
2023/04/04 06:45:16;;;;;;;4.50;3.78;;;;;;;0.50;62.83;99205.00;4978213;28;20517;-72
2023/04/04 06:47:41;;;;;;;5.40;4.50;;;;;;;0.45;63.12;99195.84;4995354;28;20079;-72
2023/04/04 06:50:07;;;;;;;6.13;4.72;;;;;;;0.53;64.68;99198.53;5007951;28;20487;-72
2023/04/04 06:52:33;;;;;;;6.07;4.47;;;;;;;0.62;63.94;99208.19;5012036;28;20033;-72
2023/04/04 06:55:00;;;;;;;7.70;5.05;;;;;;;0.89;63.78;99199.25;4993910;28;20038;-72
2023/04/04 06:57:26;;;;;;;8.02;5.20;;;;;;;0.79;63.66;99204.66;4978519;28;20025;-72
2023/04/04 06:59:51;;;;;;;7.05;5.68;;;;;;;0.99;63.81;99200.78;4980609;28;20125;-72
2023/04/04 07:02:17;;;;;;;7.18;5.32;;;;;;;1.07;62.88;99200.81;5022750;28;20357;-73
2023/04/04 07:04:42;;;;;;;7.28;6.00;;;;;;;1.12;63.01;99201.16;5011819;28;20553;-72
2023/04/04 07:07:07;;;;;;;8.25;5.18;;;;;;;1.26;61.99;99208.50;4994545;28;20028;-73
2023/04/04 07:09:33;;;;;;;7.80;5.95;;;;;;;1.37;62.80;99200.25;4978136;28;20087;-72
2023/04/04 07:11:58;;;;;;;7.43;6.20;;;;;;;1.24;63.21;99205.19;4994436;28;20021;-72
2023/04/04 07:14:23;;;;;;;7.78;5.70;;;;;;;1.52;61.74;99208.41;4994281;28;20487;-72
2023/04/04 07:16:49;;;;;;;7.60;5.82;;;;;;;1.51;62.33;99205.94;4994220;28;20042;-72
2023/04/04 07:19:16;;;;;;;6.35;5.32;;;;;;;1.61;60.98;99202.13;4978090;28;20484;-73
2023/04/04 07:21:41;;;;;;;7.13;6.03;;;;;;;1.63;61.23;99204.63;5002745;28;20022;-72
2023/04/04 07:24:06;;;;;;;7.68;6.53;;;;;;;1.66;60.90;99204.28;4989751;28;20458;-73
2023/04/04 07:26:33;;;;;;;6.50;5.75;;;;;;;1.81;59.79;99202.66;4995467;28;20057;-73
2023/04/04 07:28:59;;;;;;;7.32;6.03;;;;;;;1.81;59.13;99200.00;5013809;28;20033;-73
2023/04/04 07:31:24;;;;;;;8.13;6.07;;;;;;;1.86;60.22;99211.81;4997114;28;20030;-75
2023/04/04 07:33:52;;;;;;;8.30;6.03;;;;;;;2.12;59.78;99203.69;5011620;28;20046;-73
2023/04/04 07:36:18;;;;;;;6.10;5.25;;;;;;;2.23;57.55;99203.34;5003801;28;20109;-72
2023/04/04 07:38:43;;;;;;;7.05;4.95;;;;;;;2.40;55.98;99207.66;4976155;28;20121;-75
2023/04/04 07:41:10;;;;;;;5.95;4.72;;;;;;;2.34;56.41;99205.66;4994170;28;20029;-72
2023/04/04 07:43:36;;;;;;;5.13;4.63;;;;;;;2.32;55.28;99198.84;4993668;28;20491;-73
2023/04/04 07:46:02;;;;;;;8.02;5.50;;;;;;;2.09;56.13;99211.97;4994244;28;20076;-71
2023/04/04 07:48:27;;;;;;;5.30;4.80;;;;;;;1.78;55.74;99208.28;5011856;28;20029;-72
2023/04/04 07:50:52;;;;;;;5.47;4.40;;;;;;;1.99;54.72;99206.00;4994206;28;20386;-73
2023/04/04 07:53:18;;;;;;;5.40;4.25;;;;;;;1.88;54.43;99208.97;4992587;28;20044;-73
2023/04/04 07:55:43;;;;;;;6.03;4.30;;;;;;;2.18;54.08;99200.34;4999979;28;20038;-72
2023/04/04 07:58:08;;;;;;;4.75;3.97;;;;;;;2.29;53.22;99200.00;4980189;28;20525;-72
2023/04/04 08:00:34;;;;;;;5.28;4.60;;;;;;;2.30;54.08;99199.03;4974732;28;20080;-73
2023/04/04 08:03:01;;;;;;;7.05;6.03;;;;;;;2.07;52.87;99200.69;4998816;28;20037;-72
2023/04/04 08:05:26;;;;;;;5.60;4.13;;;;;;;2.33;53.89;99201.34;4986408;28;20030;-73
2023/04/04 08:07:52;;;;;;;5.55;4.57;;;;;;;2.77;51.97;99202.59;4991508;28;20522;-74
2023/04/04 08:10:17;;;;;;;5.72;3.95;;;;;;;2.50;53.08;99197.66;4978443;28;20515;-72
2023/04/04 08:12:46;;;;;;;5.55;4.70;;;;;;;2.71;53.10;99192.63;4992596;28;20037;-72
2023/04/04 08:15:11;;;;;;;7.28;4.70;;;;;;;2.54;52.48;99196.34;4990181;28;20026;-72
2023/04/04 08:17:37;;;;;;;8.60;5.13;;;;;;;2.45;52.55;99197.31;4991307;28;20483;-72
2023/04/04 08:20:03;;;;;;;5.90;4.60;;;;;;;2.65;53.19;99195.97;4986219;28;20462;-75
2023/04/04 08:22:29;;;;;;;6.50;4.70;;;;;;;3.18;52.77;99194.47;4984417;28;20034;-73
2023/04/04 08:24:54;;;;;;;7.07;5.07;;;;;;;3.18;50.91;99200.63;5009009;28;20101;-72
2023/04/04 08:27:20;;;;;;;5.35;4.20;;;;;;;3.46;48.79;99193.00;4998348;28;20440;-72
2023/04/04 08:29:46;;;;;;;4.95;4.45;;;;;;;3.42;49.40;99197.03;5009363;28;20040;-73
2023/04/04 08:32:13;;;;;;;4.90;4.38;;;;;;;4.11;50.13;99180.91;5013855;28;20045;-73
2023/04/04 08:34:40;;;;;;;7.50;4.55;;;;;;;3.28;49.65;99190.59;4992908;28;20507;-73
2023/04/04 08:37:06;;;;;;;5.32;4.80;;;;;;;3.48;51.32;99196.31;5018755;28;20034;-73
2023/04/04 08:39:31;;;;;;;5.05;4.13;;;;;;;3.01;49.22;99198.22;4985607;28;20450;-73
2023/04/04 08:42:04;;;;;;;5.10;4.57;;;;;;;2.88;49.86;99189.91;4983898;28;20034;-75
2023/04/04 08:44:31;;;;;;;4.85;4.45;;;;;;;2.91;50.63;99197.56;4996835;28;20042;-74
2023/04/04 08:47:03;;;;;;;7.43;4.90;;;;;;;3.08;50.38;99193.84;4997040;28;20018;-75
2023/04/04 08:49:31;;;;;;;4.38;3.97;;;;;;;2.87;49.09;99198.91;4981123;28;20117;-73
2023/04/04 08:51:57;;;;;;;5.53;4.38;;;;;;;3.16;48.87;99191.16;4996906;28;20033;-74
2023/04/04 08:54:24;;;;;;;4.85;3.75;;;;;;;3.55;48.55;99191.94;4996763;28;20033;-74
2023/04/04 08:56:50;;;;;;;4.30;3.90;;;;;;;3.66;45.93;99204.03;5013015;28;20171;-74
2023/04/04 08:59:17;;;;;;;4.38;3.97;;;;;;;3.69;45.23;99193.84;4996869;28;20121;-73
2023/04/04 09:01:43;;;;;;;4.78;3.55;;;;;;;3.94;45.32;99197.19;5009971;28;20076;-75
2023/04/04 09:04:09;;;;;;;4.10;3.70;;;;;;;4.27;43.52;99187.91;4996468;28;20041;-75
2023/04/04 09:06:35;;;;;;;4.93;4.03;;;;;;;4.47;42.63;99193.59;4996590;28;20030;-74
2023/04/04 09:09:02;;;;;;;4.47;3.80;;;;;;;4.56;43.60;99203.16;4996633;28;20034;-74
2023/04/04 09:11:30;;;;;;;4.15;3.70;;;;;;;5.16;42.77;99187.81;5012922;28;20479;-74
2023/04/04 09:13:56;;;;;;;4.40;4.00;;;;;;;5.08;43.17;99187.94;4996240;28;20123;-75
2023/04/04 09:16:22;;;;;;;4.43;4.03;;;;;;;5.39;43.13;99199.19;4996127;28;20021;-75
2023/04/04 09:18:47;;;;;;;4.70;3.88;;;;;;;4.97;43.21;99200.91;5013848;28;20414;-75
2023/04/04 09:21:13;;;;;;;4.43;3.70;;;;;;;4.84;43.30;99193.53;4996327;28;20095;-74
2023/04/04 09:23:38;;;;;;;6.00;4.40;;;;;;;4.42;43.03;99191.47;4995036;28;20042;-74
2023/04/04 09:26:05;;;;;;;4.70;4.20;;;;;;;4.72;44.23;99198.50;5013495;28;20113;-75
2023/04/04 09:28:31;;;;;;;5.45;3.83;;;;;;;4.86;42.30;99199.50;4980113;28;20124;-74
2023/04/04 09:30:59;;;;;;;5.90;5.03;;;;;;;4.68;43.51;99196.38;4995948;28;20383;-75
2023/04/04 09:33:25;;;;;;;4.55;4.15;;;;;;;4.45;45.42;99200.94;4978716;28;20451;-75
2023/04/04 09:35:53;;;;;;;5.78;4.40;;;;;;;4.46;43.98;99191.91;5011858;28;20057;-75
2023/04/04 09:38:23;;;;;;;5.47;4.18;;;;;;;4.43;43.89;99181.63;4994050;28;20140;-75
2023/04/04 09:40:48;;;;;;;5.70;3.95;;;;;;;5.29;43.66;99184.50;4994675;28;20535;-74
2023/04/04 09:43:14;;;;;;;4.90;4.22;;;;;;;5.24;42.74;99187.72;4994837;28;20034;-75
2023/04/04 09:45:43;;;;;;;5.13;4.35;;;;;;;4.85;43.85;99181.88;4994792;28;20080;-75
2023/04/04 09:48:09;;;;;;;5.40;3.97;;;;;;;4.75;45.43;99181.28;4995785;28;20507;-72
2023/04/04 09:50:36;;;;;;;5.57;4.47;;;;;;;4.97;43.95;99195.56;4996087;28;20026;-74
2023/04/04 09:53:01;;;;;;;5.07;3.85;;;;;;;5.39;43.32;99196.53;5011915;28;20034;-74
2023/04/04 09:55:36;;;;;;;4.35;3.88;;;;;;;4.82;42.43;99188.38;5012228;28;20026;-75
2023/04/04 09:58:13;;;;;;;4.30;3.90;;;;;;;5.04;42.24;99191.97;4995706;28;20042;-75
2023/04/04 10:00:47;;;;;;;5.60;4.00;;;;;;;5.38;42.57;99194.88;5004309;28;20120;-75
2023/04/04 10:03:16;;;;;;;4.95;4.32;;;;;;;4.99;44.48;99199.72;4982611;28;20038;-75
2023/04/04 10:05:44;;;;;;;4.53;4.10;;;;;;;4.96;44.25;99188.56;4979454;28;20037;-75
2023/04/04 10:08:16;;;;;;;7.38;4.88;;;;;;;4.51;46.30;99194.88;4995548;28;20038;-75
2023/04/04 10:10:51;;;;;;;5.15;4.07;;;;;;;4.48;47.59;99197.91;4995438;28;20380;-75
2023/04/04 10:13:39;;;;;;;5.15;4.50;;;;;;;4.16;48.11;99204.34;5004290;28;20030;-75
2023/04/04 10:16:05;;;;;;;5.88;4.82;;;;;;;4.30;46.75;99203.56;4979792;28;20125;-74
2023/04/04 10:18:32;;;;;;;5.93;4.90;;;;;;;4.10;47.07;99200.56;4968674;28;20460;-74
2023/04/04 10:20:59;;;;;;;6.15;4.57;;;;;;;4.05;49.30;99204.78;4992350;28;20042;-74
2023/04/04 10:23:26;;;;;;;5.00;4.50;;;;;;;4.51;48.73;99205.53;4985658;28;20050;-74
2023/04/04 10:25:55;;;;;;;5.35;4.53;;;;;;;4.29;49.03;99196.59;4982417;28;20377;-74
2023/04/04 10:28:21;;;;;;;5.47;4.55;;;;;;;4.34;47.69;99194.19;5001941;28;20046;-74
2023/04/04 10:31:14;;;;;;;6.40;5.15;;;;;;;4.31;47.62;99183.06;4988573;28;20076;-74
2023/04/04 10:34:00;;;;;;;4.78;4.35;;;;;;;4.04;46.04;99192.44;4988583;28;20036;-75
2023/04/04 10:36:30;;;;;;;5.90;4.35;;;;;;;4.13;45.93;99181.53;4985722;28;20125;-74
2023/04/04 10:39:13;;;;;;;4.70;3.97;;;;;;;4.15;46.21;99187.50;4982097;28;20037;-74
2023/04/04 10:41:39;;;;;;;4.30;3.88;;;;;;;4.74;45.60;99179.63;4982047;28;20571;-74
2023/04/04 10:44:14;;;;;;;5.68;4.10;;;;;;;5.18;44.26;99185.78;4988007;28;20396;-74
2023/04/04 10:46:40;;;;;;;5.38;3.65;;;;;;;4.79;45.22;99187.91;4988465;28;20042;-74
2023/04/04 10:49:06;;;;;;;5.22;3.90;;;;;;;5.40;45.26;99184.84;4966950;28;20156;-74
2023/04/04 10:51:32;;;;;;;5.22;4.72;;;;;;;4.97;44.79;99185.69;4999202;28;20172;-74
2023/04/04 10:53:57;;;;;;;4.90;4.40;;;;;;;4.83;46.51;99175.88;4987424;28;20116;-74
2023/04/04 10:56:23;;;;;;;6.45;4.95;;;;;;;4.26;46.19;99180.09;4988247;28;20400;-74
2023/04/04 10:58:49;;;;;;;5.90;4.70;;;;;;;4.52;45.44;99170.69;5000084;28;20113;-74
2023/04/04 11:01:19;;;;;;;5.63;4.63;;;;;;;4.56;47.33;99179.16;5025492;28;20044;-73
2023/04/04 11:04:20;;;;;;;4.55;4.15;;;;;;;5.08;46.09;99177.25;4987867;28;20039;-73
2023/04/04 11:07:08;;;;;;;5.47;4.63;;;;;;;5.02;44.61;99177.97;4991907;28;20053;-73
2023/04/04 11:09:56;;;;;;;6.55;5.55;;;;;;;5.08;47.22;99163.91;4994611;28;20038;-73
2023/04/04 11:12:32;;;;;;;6.45;5.15;;;;;;;5.68;45.80;99166.25;4994481;28;20037;-73
2023/04/04 11:15:00;;;;;;;7.00;5.32;;;;;;;4.99;44.97;99169.53;4994691;28;20046;-73
2023/04/04 11:17:52;;;;;;;5.80;4.78;;;;;;;5.38;43.61;99162.84;5012117;28;20156;-73
2023/04/04 11:20:23;;;;;;;5.47;4.28;;;;;;;5.85;42.29;99164.19;4993735;28;20109;-73
2023/04/04 11:23:04;;;;;;;5.35;4.85;;;;;;;5.24;42.60;99166.38;5011121;28;20041;-73
2023/04/04 11:25:34;;;;;;;6.68;5.20;;;;;;;5.37;44.85;99161.16;5011565;28;20061;-73
2023/04/04 11:28:05;;;;;;;5.47;4.95;;;;;;;5.43;43.97;99165.78;4994491;28;20037;-73
2023/04/04 11:30:36;;;;;;;6.63;4.85;;;;;;;5.08;43.01;99165.75;5010587;28;20046;-73
2023/04/04 11:33:01;;;;;;;5.88;4.68;;;;;;;5.52;42.48;99151.28;4994062;28;20030;-73
2023/04/04 11:35:27;;;;;;;7.65;5.05;;;;;;;4.91;45.05;99167.75;4977986;28;20037;-73
2023/04/04 11:37:52;;;;;;;6.88;4.95;;;;;;;5.53;45.74;99160.94;4994406;28;20120;-72
2023/04/04 11:40:19;;;;;;;7.65;4.97;;;;;;;5.68;44.86;99154.72;5013247;28;20033;-73